createdAt,value
2017-02-11T00:00:03.075Z,1017.24
2017-02-11T00:00:13.075Z,1017.22
2017-02-11T00:00:23.061Z,1017.24
2017-02-11T00:00:33.055Z,1017.25
2017-02-11T00:00:43.046Z,1017.26
2017-02-11T00:00:53.040Z,1017.21
2017-02-11T00:01:03.028Z,1017.22
2017-02-11T00:01:13.026Z,1017.21
2017-02-11T00:01:23.016Z,1017.23
2017-02-11T00:01:33.009Z,1017.23
2017-02-11T00:01:42.586Z,1017.29
2017-02-11T00:01:52.995Z,1017.24
2017-02-11T00:02:02.993Z,1017.22
2017-02-11T00:02:12.981Z,1017.25
2017-02-11T00:02:22.974Z,1017.19
2017-02-11T00:02:32.968Z,1017.19
2017-02-11T00:02:42.961Z,1017.24
2017-02-11T00:02:52.951Z,1017.24
2017-02-11T00:03:02.947Z,1017.22
2017-02-11T00:03:12.938Z,1017.22
2017-02-11T00:03:22.931Z,1017.17
2017-02-11T00:03:32.925Z,1017.17
2017-02-11T00:03:42.915Z,1017.14
2017-02-11T00:03:52.912Z,1017.15
2017-02-11T00:04:02.904Z,1017.19
2017-02-11T00:04:12.476Z,1017.22
2017-02-11T00:04:22.891Z,1017.14
2017-02-11T00:04:32.884Z,1017.17
2017-02-11T00:04:42.876Z,1017.17
2017-02-11T00:04:52.871Z,1017.22
2017-02-11T00:05:02.861Z,1017.25
2017-02-11T00:05:12.856Z,1017.12
2017-02-11T00:05:22.850Z,1017.18
2017-02-11T00:05:32.839Z,1017.19
2017-02-11T00:05:42.832Z,1017.19
2017-02-11T00:05:52.825Z,1017.14
2017-02-11T00:06:02.817Z,1017.15
2017-02-11T00:06:12.829Z,1017.14
2017-02-11T00:06:22.805Z,1017.17
2017-02-11T00:06:32.836Z,1017.15
2017-02-11T00:06:42.789Z,1017.2
2017-02-11T00:06:52.493Z,1017.14
2017-02-11T00:07:02.779Z,1017.17
2017-02-11T00:07:11.938Z,1017.18
2017-02-11T00:07:22.763Z,1017.16
2017-02-11T00:07:32.756Z,1017.19
2017-02-11T00:07:42.749Z,1017.21
2017-02-11T00:07:52.739Z,1017.16
2017-02-11T00:08:03.005Z,1017.18
2017-02-11T00:08:12.730Z,1017.19
2017-02-11T00:08:22.723Z,1017.16
2017-02-11T00:08:32.715Z,1017.2
2017-02-11T00:08:42.709Z,1017.2
2017-02-11T00:08:52.713Z,1017.17
2017-02-11T00:09:02.273Z,1017.19
2017-02-11T00:09:12.686Z,1017.16
2017-02-11T00:09:22.677Z,1017.16
2017-02-11T00:09:32.955Z,1017.21
2017-02-11T00:09:42.665Z,1017.13
2017-02-11T00:09:52.660Z,1017.17
2017-02-11T00:10:02.235Z,1017.16
2017-02-11T00:10:12.642Z,1017.14
2017-02-11T00:10:22.637Z,1017.19
2017-02-11T00:10:32.634Z,1017.18
2017-02-11T00:10:42.624Z,1017.18
2017-02-11T00:10:52.617Z,1017.2
2017-02-11T00:11:02.195Z,1017.16
2017-02-11T00:11:12.607Z,1017.17
2017-02-11T00:11:22.880Z,1017.17
2017-02-11T00:11:32.588Z,1017.17
2017-02-11T00:11:42.579Z,1017.17
2017-02-11T00:11:52.573Z,1017.17
2017-02-11T00:12:02.603Z,1017.16
2017-02-11T00:12:12.561Z,1017.18
2017-02-11T00:12:22.552Z,1017.16
2017-02-11T00:12:32.129Z,1017.17
2017-02-11T00:12:42.821Z,1017.15
2017-02-11T00:12:52.531Z,1017.14
2017-02-11T00:13:02.523Z,1017.16
2017-02-11T00:13:12.519Z,1017.14
2017-02-11T00:13:22.513Z,1017.18
2017-02-11T00:13:32.503Z,1017.14
2017-02-11T00:13:42.495Z,1017.11
2017-02-11T00:13:52.487Z,1017.13
2017-02-11T00:14:02.480Z,1017.16
2017-02-11T00:14:12.474Z,1017.16
2017-02-11T00:14:22.467Z,1017.17
2017-02-11T00:14:32.461Z,1017.15
2017-02-11T00:14:42.465Z,1017.18
2017-02-11T00:14:52.444Z,1017.18
2017-02-11T00:15:02.441Z,1017.17
2017-02-11T00:15:12.432Z,1017.19
2017-02-11T00:15:22.427Z,1017.15
2017-02-11T00:15:32.001Z,1017.16
2017-02-11T00:15:42.412Z,1017.15
2017-02-11T00:15:52.403Z,1017.19
2017-02-11T00:16:01.983Z,1017.11
2017-02-11T00:16:11.971Z,1017.14
2017-02-11T00:16:21.965Z,1017.14
2017-02-11T00:16:32.383Z,1017.15
2017-02-11T00:16:42.371Z,1017.11
2017-02-11T00:16:52.363Z,1017.16
2017-02-11T00:17:02.356Z,1017.18
2017-02-11T00:17:12.352Z,1017.14
2017-02-11T00:17:22.344Z,1017.19
2017-02-11T00:17:32.336Z,1017.16
2017-02-11T00:17:41.907Z,1017.1
2017-02-11T00:17:52.320Z,1017.13
2017-02-11T00:18:02.314Z,1017.15
2017-02-11T00:18:12.307Z,1017.11
2017-02-11T00:18:22.301Z,1017.16
2017-02-11T00:18:32.290Z,1017.14
2017-02-11T00:18:42.285Z,1017.12
2017-02-11T00:18:52.301Z,1017.11
2017-02-11T00:19:02.272Z,1017.14
2017-02-11T00:19:11.428Z,1017.14
2017-02-11T00:19:22.258Z,1017.16
2017-02-11T00:19:32.251Z,1017.18
2017-02-11T00:19:42.241Z,1017.17
2017-02-11T00:19:52.238Z,1017.16
2017-02-11T00:20:02.236Z,1017.15
2017-02-11T00:20:12.223Z,1017.09
2017-02-11T00:20:22.504Z,1017.15
2017-02-11T00:20:32.207Z,1017.14
2017-02-11T00:20:42.201Z,1017.19
2017-02-11T00:20:51.776Z,1017.21
2017-02-11T00:21:02.189Z,1017.18
2017-02-11T00:21:12.179Z,1017.2
2017-02-11T00:21:21.756Z,1017.19
2017-02-11T00:21:32.169Z,1017.16
2017-02-11T00:21:42.159Z,1017.16
2017-02-11T00:21:52.436Z,1017.17
2017-02-11T00:22:01.727Z,1017.2
2017-02-11T00:22:11.723Z,1017.2
2017-02-11T00:22:22.130Z,1017.23
2017-02-11T00:22:32.122Z,1017.2
2017-02-11T00:22:42.117Z,1017.22
2017-02-11T00:22:52.112Z,1017.17
2017-02-11T00:23:02.107Z,1017.21
2017-02-11T00:23:12.380Z,1017.22
2017-02-11T00:23:22.090Z,1017.25
2017-02-11T00:23:32.085Z,1017.2
2017-02-11T00:23:42.342Z,1017.22
2017-02-11T00:23:51.668Z,1017.21
2017-02-11T00:24:02.063Z,1017.23
2017-02-11T00:24:11.638Z,1017.25
2017-02-11T00:24:22.048Z,1017.21
2017-02-11T00:24:32.041Z,1017.2
2017-02-11T00:24:42.037Z,1017.18
2017-02-11T00:24:51.607Z,1017.2
2017-02-11T00:25:01.601Z,1017.14
2017-02-11T00:25:11.591Z,1017.2
2017-02-11T00:25:22.004Z,1017.14
2017-02-11T00:25:32.000Z,1017.18
2017-02-11T00:25:41.988Z,1017.2
2017-02-11T00:25:51.985Z,1017.15
2017-02-11T00:26:01.977Z,1017.18
2017-02-11T00:26:11.972Z,1017.15
2017-02-11T00:26:21.967Z,1017.16
2017-02-11T00:26:31.957Z,1017.1
2017-02-11T00:26:41.950Z,1017.12
2017-02-11T00:26:51.942Z,1017.17
2017-02-11T00:27:01.936Z,1017.13
2017-02-11T00:27:11.928Z,1017.16
2017-02-11T00:27:21.923Z,1017.14
2017-02-11T00:27:31.914Z,1017.12
2017-02-11T00:27:41.908Z,1017.15
2017-02-11T00:27:51.482Z,1017.16
2017-02-11T00:28:01.894Z,1017.22
2017-02-11T00:28:11.882Z,1017.18
2017-02-11T00:28:21.879Z,1017.18
2017-02-11T00:28:31.871Z,1017.18
2017-02-11T00:28:41.865Z,1017.18
2017-02-11T00:28:51.857Z,1017.23
2017-02-11T00:29:02.134Z,1017.17
2017-02-11T00:29:11.844Z,1017.19
2017-02-11T00:29:21.839Z,1017.22
2017-02-11T00:29:31.832Z,1017.22
2017-02-11T00:29:41.825Z,1017.27
2017-02-11T00:29:51.815Z,1017.26
2017-02-11T00:30:01.810Z,1017.2
2017-02-11T00:30:11.805Z,1017.26
2017-02-11T00:30:21.794Z,1017.26
2017-02-11T00:30:31.789Z,1017.23
2017-02-11T00:30:41.784Z,1017.3
2017-02-11T00:30:51.776Z,1017.25
2017-02-11T00:31:01.767Z,1017.25
2017-02-11T00:31:11.763Z,1017.25
2017-02-11T00:31:21.752Z,1017.3
2017-02-11T00:31:31.745Z,1017.25
2017-02-11T00:31:41.320Z,1017.28
2017-02-11T00:31:52.002Z,1017.28
2017-02-11T00:32:01.726Z,1017.29
2017-02-11T00:32:11.299Z,1017.26
2017-02-11T00:32:21.710Z,1017.26
2017-02-11T00:32:31.702Z,1017.28
2017-02-11T00:32:41.700Z,1017.29
2017-02-11T00:32:51.688Z,1017.24
2017-02-11T00:33:01.262Z,1017.25
2017-02-11T00:33:11.674Z,1017.22
2017-02-11T00:33:21.668Z,1017.24
2017-02-11T00:33:31.242Z,1017.28
2017-02-11T00:33:41.657Z,1017.21
2017-02-11T00:33:51.685Z,1017.23
2017-02-11T00:34:01.663Z,1017.27
2017-02-11T00:34:11.636Z,1017.26
2017-02-11T00:34:21.623Z,1017.27
2017-02-11T00:34:31.886Z,1017.23
2017-02-11T00:34:41.610Z,1017.29
2017-02-11T00:34:51.603Z,1017.29
2017-02-11T00:35:01.884Z,1017.32
2017-02-11T00:35:11.591Z,1017.24
2017-02-11T00:35:21.590Z,1017.32
2017-02-11T00:35:31.575Z,1017.28
2017-02-11T00:35:41.572Z,1017.26
2017-02-11T00:35:51.145Z,1017.27
2017-02-11T00:36:01.555Z,1017.31
2017-02-11T00:36:11.546Z,1017.29
2017-02-11T00:36:21.540Z,1017.26
2017-02-11T00:36:31.535Z,1017.26
2017-02-11T00:36:41.528Z,1017.26
2017-02-11T00:36:51.521Z,1017.28
2017-02-11T00:37:01.512Z,1017.29
2017-02-11T00:37:11.791Z,1017.24
2017-02-11T00:37:21.087Z,1017.24
2017-02-11T00:37:31.491Z,1017.25
2017-02-11T00:37:41.485Z,1017.26
2017-02-11T00:37:51.480Z,1017.26
2017-02-11T00:38:01.056Z,1017.16
2017-02-11T00:38:11.462Z,1017.15
2017-02-11T00:38:21.457Z,1017.19
2017-02-11T00:38:31.479Z,1017.17
2017-02-11T00:38:41.446Z,1017.15
2017-02-11T00:38:51.440Z,1017.16
2017-02-11T00:39:01.434Z,1017.22
2017-02-11T00:39:11.424Z,1017.2
2017-02-11T00:39:21.413Z,1017.18
2017-02-11T00:39:31.408Z,1017.21
2017-02-11T00:39:41.399Z,1017.18
2017-02-11T00:39:51.394Z,1017.2
2017-02-11T00:40:01.394Z,1017.18
2017-02-11T00:40:11.381Z,1017.21
2017-02-11T00:40:21.373Z,1017.15
2017-02-11T00:40:31.365Z,1017.17
2017-02-11T00:40:41.359Z,1017.2
2017-02-11T00:40:51.354Z,1017.15
2017-02-11T00:41:01.345Z,1017.19
2017-02-11T00:41:11.372Z,1017.16
2017-02-11T00:41:21.330Z,1017.21
2017-02-11T00:41:31.324Z,1017.19
2017-02-11T00:41:41.318Z,1017.21
2017-02-11T00:41:51.313Z,1017.2
2017-02-11T00:42:01.312Z,1017.19
2017-02-11T00:42:11.299Z,1017.21
2017-02-11T00:42:21.289Z,1017.26
2017-02-11T00:42:31.284Z,1017.21
2017-02-11T00:42:41.275Z,1017.19
2017-02-11T00:42:51.269Z,1017.22
2017-02-11T00:43:01.260Z,1017.2
2017-02-11T00:43:11.256Z,1017.25
2017-02-11T00:43:21.245Z,1017.25
2017-02-11T00:43:31.239Z,1017.22
2017-02-11T00:43:41.230Z,1017.23
2017-02-11T00:43:51.226Z,1017.19
2017-02-11T00:44:01.220Z,1017.24
2017-02-11T00:44:11.499Z,1017.26
2017-02-11T00:44:21.204Z,1017.25
2017-02-11T00:44:31.196Z,1017.27
2017-02-11T00:44:41.189Z,1017.27
2017-02-11T00:44:51.187Z,1017.23
2017-02-11T00:45:00.763Z,1017.26
2017-02-11T00:45:11.168Z,1017.29
2017-02-11T00:45:21.164Z,1017.19
2017-02-11T00:45:31.153Z,1017.26
2017-02-11T00:45:41.149Z,1017.28
2017-02-11T00:45:51.140Z,1017.29
2017-02-11T00:46:01.137Z,1017.22
2017-02-11T00:46:11.139Z,1017.24
2017-02-11T00:46:21.122Z,1017.25
2017-02-11T00:46:31.115Z,1017.26
2017-02-11T00:46:41.104Z,1017.21
2017-02-11T00:46:51.099Z,1017.25
2017-02-11T00:47:01.094Z,1017.23
2017-02-11T00:47:11.089Z,1017.25
2017-02-11T00:47:21.080Z,1017.26
2017-02-11T00:47:31.072Z,1017.22
2017-02-11T00:47:41.064Z,1017.29
2017-02-11T00:47:50.639Z,1017.27
2017-02-11T00:48:01.050Z,1017.26
2017-02-11T00:48:11.042Z,1017.27
2017-02-11T00:48:21.038Z,1017.29
2017-02-11T00:48:31.032Z,1017.3
2017-02-11T00:48:41.020Z,1017.27
2017-02-11T00:48:50.599Z,1017.28
2017-02-11T00:49:01.008Z,1017.32
2017-02-11T00:49:11.002Z,1017.32
2017-02-11T00:49:20.576Z,1017.29
2017-02-11T00:49:30.985Z,1017.33
2017-02-11T00:49:40.981Z,1017.32
2017-02-11T00:49:50.975Z,1017.26
2017-02-11T00:50:01.272Z,1017.24
2017-02-11T00:50:10.958Z,1017.28
2017-02-11T00:50:20.951Z,1017.27
2017-02-11T00:50:30.523Z,1017.25
2017-02-11T00:50:40.935Z,1017.27
2017-02-11T00:50:50.930Z,1017.28
2017-02-11T00:51:00.927Z,1017.32
2017-02-11T00:51:10.915Z,1017.29
2017-02-11T00:51:20.909Z,1017.31
2017-02-11T00:51:30.899Z,1017.26
2017-02-11T00:51:40.894Z,1017.29
2017-02-11T00:51:50.888Z,1017.27
2017-02-11T00:52:00.508Z,1017.32
2017-02-11T00:52:10.874Z,1017.27
2017-02-11T00:52:20.875Z,1017.27
2017-02-11T00:52:30.863Z,1017.32
2017-02-11T00:52:40.852Z,1017.31
2017-02-11T00:52:50.844Z,1017.31
2017-02-11T00:53:00.842Z,1017.3
2017-02-11T00:53:10.843Z,1017.33
2017-02-11T00:53:20.825Z,1017.33
2017-02-11T00:53:30.819Z,1017.28
2017-02-11T00:53:40.811Z,1017.31
2017-02-11T00:53:50.802Z,1017.4
2017-02-11T00:54:00.796Z,1017.3
2017-02-11T00:54:10.792Z,1017.34
2017-02-11T00:54:20.365Z,1017.34
2017-02-11T00:54:30.777Z,1017.29
2017-02-11T00:54:40.798Z,1017.36
2017-02-11T00:54:50.763Z,1017.31
2017-02-11T00:55:00.755Z,1017.3
2017-02-11T00:55:11.031Z,1017.33
2017-02-11T00:55:20.743Z,1017.34
2017-02-11T00:55:30.731Z,1017.32
2017-02-11T00:55:40.725Z,1017.35
2017-02-11T00:55:50.723Z,1017.34
2017-02-11T00:56:00.712Z,1017.35
2017-02-11T00:56:10.714Z,1017.39
2017-02-11T00:56:20.699Z,1017.35
2017-02-11T00:56:30.974Z,1017.34
2017-02-11T00:56:40.684Z,1017.36
2017-02-11T00:56:50.678Z,1017.38
2017-02-11T00:57:00.670Z,1017.34
2017-02-11T00:57:10.664Z,1017.3
2017-02-11T00:57:20.654Z,1017.35
2017-02-11T00:57:30.648Z,1017.35
2017-02-11T00:57:40.641Z,1017.39
2017-02-11T00:57:50.904Z,1017.33
2017-02-11T00:58:00.628Z,1017.34
2017-02-11T00:58:10.621Z,1017.28
2017-02-11T00:58:20.619Z,1017.36
2017-02-11T00:58:30.609Z,1017.3
2017-02-11T00:58:40.600Z,1017.33
2017-02-11T00:58:50.460Z,1017.4
2017-02-11T00:59:00.585Z,1017.38
2017-02-11T00:59:10.580Z,1017.33
2017-02-11T00:59:20.572Z,1017.36
2017-02-11T00:59:30.564Z,1017.4
2017-02-11T00:59:40.559Z,1017.33
2017-02-11T00:59:50.547Z,1017.39
2017-02-11T01:00:00.542Z,1017.36
2017-02-11T01:00:10.535Z,1017.36
2017-02-11T01:00:20.528Z,1017.32
2017-02-11T01:00:30.522Z,1017.36
2017-02-11T01:00:40.516Z,1017.36
2017-02-11T01:00:50.508Z,1017.28
2017-02-11T01:01:00.499Z,1017.34
2017-02-11T01:01:10.500Z,1017.35
2017-02-11T01:01:20.485Z,1017.36
2017-02-11T01:01:30.480Z,1017.3
2017-02-11T01:01:40.473Z,1017.32
2017-02-11T01:01:50.470Z,1017.34
2017-02-11T01:02:00.459Z,1017.3
2017-02-11T01:02:10.453Z,1017.33
2017-02-11T01:02:20.445Z,1017.34
2017-02-11T01:02:30.438Z,1017.34
2017-02-11T01:02:40.701Z,1017.36
2017-02-11T01:02:50.423Z,1017.32
2017-02-11T01:03:00.416Z,1017.33
2017-02-11T01:03:10.412Z,1017.3
2017-02-11T01:03:20.403Z,1017.3
2017-02-11T01:03:30.398Z,1017.32
2017-02-11T01:03:39.971Z,1017.34
2017-02-11T01:03:50.384Z,1017.31
2017-02-11T01:04:00.373Z,1017.29
2017-02-11T01:04:09.947Z,1017.33
2017-02-11T01:04:20.360Z,1017.31
2017-02-11T01:04:30.641Z,1017.33
2017-02-11T01:04:40.347Z,1017.36
2017-02-11T01:04:50.338Z,1017.35
2017-02-11T01:05:00.333Z,1017.37
2017-02-11T01:05:10.326Z,1017.33
2017-02-11T01:05:20.317Z,1017.3
2017-02-11T01:05:29.891Z,1017.3
2017-02-11T01:05:40.304Z,1017.3
2017-02-11T01:05:50.300Z,1017.31
2017-02-11T01:05:59.873Z,1017.31
2017-02-11T01:06:10.283Z,1017.32
2017-02-11T01:06:19.855Z,1017.31
2017-02-11T01:06:30.268Z,1017.29
2017-02-11T01:06:40.264Z,1017.32
2017-02-11T01:06:50.255Z,1017.28
2017-02-11T01:07:00.250Z,1017.32
2017-02-11T01:07:10.525Z,1017.27
2017-02-11T01:07:20.234Z,1017.29
2017-02-11T01:07:30.232Z,1017.27
2017-02-11T01:07:40.218Z,1017.3
2017-02-11T01:07:50.215Z,1017.3
2017-02-11T01:08:00.206Z,1017.32
2017-02-11T01:08:10.197Z,1017.3
2017-02-11T01:08:20.192Z,1017.29
2017-02-11T01:08:30.184Z,1017.27
2017-02-11T01:08:40.179Z,1017.27
2017-02-11T01:08:50.169Z,1017.27
2017-02-11T01:09:00.163Z,1017.29
2017-02-11T01:09:10.157Z,1017.29
2017-02-11T01:09:20.149Z,1017.28
2017-02-11T01:09:30.140Z,1017.27
2017-02-11T01:09:40.134Z,1017.27
2017-02-11T01:09:50.131Z,1017.27
2017-02-11T01:10:00.121Z,1017.28
2017-02-11T01:10:10.113Z,1017.26
2017-02-11T01:10:20.107Z,1017.27
2017-02-11T01:10:30.101Z,1017.28
2017-02-11T01:10:40.377Z,1017.27
2017-02-11T01:10:50.087Z,1017.23
2017-02-11T01:10:59.661Z,1017.29
2017-02-11T01:11:10.076Z,1017.25
2017-02-11T01:11:20.065Z,1017.26
2017-02-11T01:11:30.058Z,1017.26
2017-02-11T01:11:40.056Z,1017.25
2017-02-11T01:11:50.045Z,1017.23
2017-02-11T01:12:00.037Z,1017.26
2017-02-11T01:12:10.031Z,1017.26
2017-02-11T01:12:20.025Z,1017.24
2017-02-11T01:12:30.014Z,1017.29
2017-02-11T01:12:40.007Z,1017.25
2017-02-11T01:12:50.007Z,1017.27
2017-02-11T01:12:59.994Z,1017.23
2017-02-11T01:13:09.986Z,1017.26
2017-02-11T01:13:19.982Z,1017.26
2017-02-11T01:13:29.975Z,1017.27
2017-02-11T01:13:39.966Z,1017.26
2017-02-11T01:13:49.960Z,1017.25
2017-02-11T01:13:59.950Z,1017.25
2017-02-11T01:14:09.947Z,1017.29
2017-02-11T01:14:19.941Z,1017.24
2017-02-11T01:14:29.517Z,1017.24
2017-02-11T01:14:39.924Z,1017.24
2017-02-11T01:14:49.919Z,1017.25
2017-02-11T01:14:59.908Z,1017.27
2017-02-11T01:15:10.223Z,1017.25
2017-02-11T01:15:19.893Z,1017.27
2017-02-11T01:15:29.890Z,1017.3
2017-02-11T01:15:39.879Z,1017.24
2017-02-11T01:15:49.874Z,1017.3
2017-02-11T01:15:59.866Z,1017.2
2017-02-11T01:16:09.859Z,1017.25
2017-02-11T01:16:19.853Z,1017.29
2017-02-11T01:16:29.847Z,1017.23
2017-02-11T01:16:39.841Z,1017.25
2017-02-11T01:16:49.835Z,1017.24
2017-02-11T01:16:59.407Z,1017.22
2017-02-11T01:17:09.819Z,1017.24
2017-02-11T01:17:19.811Z,1017.3
2017-02-11T01:17:29.805Z,1017.21
2017-02-11T01:17:39.801Z,1017.27
2017-02-11T01:17:49.794Z,1017.3
2017-02-11T01:17:59.367Z,1017.23
2017-02-11T01:18:09.776Z,1017.28
2017-02-11T01:18:20.038Z,1017.23
2017-02-11T01:18:29.762Z,1017.21
2017-02-11T01:18:39.755Z,1017.24
2017-02-11T01:18:49.751Z,1017.27
2017-02-11T01:18:59.321Z,1017.27
2017-02-11T01:19:09.732Z,1017.25
2017-02-11T01:19:19.726Z,1017.22
2017-02-11T01:19:30.014Z,1017.28
2017-02-11T01:19:39.717Z,1017.3
2017-02-11T01:19:49.705Z,1017.24
2017-02-11T01:19:59.697Z,1017.24
2017-02-11T01:20:09.691Z,1017.23
2017-02-11T01:20:19.684Z,1017.23
2017-02-11T01:20:29.676Z,1017.23
2017-02-11T01:20:39.669Z,1017.23
2017-02-11T01:20:49.679Z,1017.17
2017-02-11T01:20:59.239Z,1017.21
2017-02-11T01:21:09.646Z,1017.23
2017-02-11T01:21:19.643Z,1017.19
2017-02-11T01:21:29.633Z,1017.18
2017-02-11T01:21:39.629Z,1017.19
2017-02-11T01:21:49.621Z,1017.17
2017-02-11T01:21:59.611Z,1017.14
2017-02-11T01:22:08.770Z,1017.21
2017-02-11T01:22:19.599Z,1017.17
2017-02-11T01:22:29.594Z,1017.19
2017-02-11T01:22:39.591Z,1017.15
2017-02-11T01:22:49.580Z,1017.18
2017-02-11T01:22:59.571Z,1017.16
2017-02-11T01:23:09.146Z,1017.15
2017-02-11T01:23:19.836Z,1017.16
2017-02-11T01:23:29.133Z,1017.14
2017-02-11T01:23:39.544Z,1017.11
2017-02-11T01:23:49.535Z,1017.15
2017-02-11T01:23:59.533Z,1017.11
2017-02-11T01:24:09.105Z,1017.19
2017-02-11T01:24:19.518Z,1017.13
2017-02-11T01:24:29.509Z,1017.15
2017-02-11T01:24:39.082Z,1017.16
2017-02-11T01:24:49.526Z,1017.15
2017-02-11T01:24:59.761Z,1017.11
2017-02-11T01:25:09.479Z,1017.13
2017-02-11T01:25:19.471Z,1017.13
2017-02-11T01:25:29.470Z,1017.13
2017-02-11T01:25:39.458Z,1017.13
2017-02-11T01:25:49.453Z,1017.11
2017-02-11T01:25:59.029Z,1017.16
2017-02-11T01:26:09.439Z,1017.11
2017-02-11T01:26:19.430Z,1017.12
2017-02-11T01:26:29.426Z,1017.12
2017-02-11T01:26:39.420Z,1017.15
2017-02-11T01:26:49.696Z,1017.13
2017-02-11T01:26:59.407Z,1017.1
2017-02-11T01:27:09.664Z,1017.13
2017-02-11T01:27:19.387Z,1017.1
2017-02-11T01:27:29.391Z,1017.13
2017-02-11T01:27:39.375Z,1017.12
2017-02-11T01:27:49.375Z,1017.16
2017-02-11T01:27:59.362Z,1017.14
2017-02-11T01:28:08.518Z,1017.15
2017-02-11T01:28:19.630Z,1017.09
2017-02-11T01:28:29.340Z,1017.15
2017-02-11T01:28:39.334Z,1017.1
2017-02-11T01:28:49.326Z,1017.16
2017-02-11T01:28:59.317Z,1017.09
2017-02-11T01:29:09.312Z,1017.11
2017-02-11T01:29:19.592Z,1017.1
2017-02-11T01:29:29.296Z,1017.12
2017-02-11T01:29:39.292Z,1017.06
2017-02-11T01:29:49.290Z,1017.1
2017-02-11T01:29:59.277Z,1017.09
2017-02-11T01:30:09.273Z,1017.09
2017-02-11T01:30:19.261Z,1017.07
2017-02-11T01:30:29.254Z,1017.11
2017-02-11T01:30:39.249Z,1017.12
2017-02-11T01:30:49.246Z,1017.03
2017-02-11T01:30:59.240Z,1017.06
2017-02-11T01:31:08.813Z,1017.12
2017-02-11T01:31:19.222Z,1017.08
2017-02-11T01:31:29.487Z,1017.08
2017-02-11T01:31:39.208Z,1017.05
2017-02-11T01:31:49.199Z,1017.07
2017-02-11T01:31:59.192Z,1017.08
2017-02-11T01:32:09.186Z,1017.03
2017-02-11T01:32:19.178Z,1017.05
2017-02-11T01:32:29.175Z,1017.04
2017-02-11T01:32:39.164Z,1017.07
2017-02-11T01:32:49.156Z,1017.05
2017-02-11T01:32:59.148Z,1017.06
2017-02-11T01:33:09.142Z,1017.05
2017-02-11T01:33:19.134Z,1017.03
2017-02-11T01:33:29.129Z,1017.03
2017-02-11T01:33:39.122Z,1017.04
2017-02-11T01:33:48.281Z,1017.03
2017-02-11T01:33:59.108Z,1017.01
2017-02-11T01:34:08.683Z,1017.08
2017-02-11T01:34:19.092Z,1017
2017-02-11T01:34:29.085Z,1017.01
2017-02-11T01:34:39.080Z,1017.02
2017-02-11T01:34:49.074Z,1017.07
2017-02-11T01:34:59.065Z,1017.06
2017-02-11T01:35:09.064Z,1017.07
2017-02-11T01:35:19.050Z,1017.04
2017-02-11T01:35:29.314Z,1017.08
2017-02-11T01:35:39.040Z,1017.08
2017-02-11T01:35:49.029Z,1017.1
2017-02-11T01:35:59.021Z,1017.06
2017-02-11T01:36:08.595Z,1017.08
2017-02-11T01:36:19.296Z,1017.08
2017-02-11T01:36:29.002Z,1017.1
2017-02-11T01:36:38.995Z,1017.02
2017-02-11T01:36:48.989Z,1017.04
2017-02-11T01:36:58.981Z,1017.09
2017-02-11T01:37:08.977Z,1017.08
2017-02-11T01:37:18.973Z,1017.09
2017-02-11T01:37:28.962Z,1017.04
2017-02-11T01:37:38.954Z,1017.07
2017-02-11T01:37:48.948Z,1017.05
2017-02-11T01:37:58.941Z,1017.06
2017-02-11T01:38:08.935Z,1017.04
2017-02-11T01:38:18.923Z,1017.1
2017-02-11T01:38:28.919Z,1017.09
2017-02-11T01:38:38.910Z,1017.1
2017-02-11T01:38:48.901Z,1017.08
2017-02-11T01:38:59.185Z,1017.09
2017-02-11T01:39:09.163Z,1017.1
2017-02-11T01:39:18.885Z,1017.06
2017-02-11T01:39:28.878Z,1017.11
2017-02-11T01:39:38.868Z,1017.08
2017-02-11T01:39:48.861Z,1017.11
2017-02-11T01:39:58.439Z,1017.13
2017-02-11T01:40:08.429Z,1017.11
2017-02-11T01:40:18.844Z,1017.1
2017-02-11T01:40:28.417Z,1017.12
2017-02-11T01:40:38.827Z,1017.14
2017-02-11T01:40:48.819Z,1017.18
2017-02-11T01:40:58.812Z,1017.12
2017-02-11T01:41:08.391Z,1017.08
2017-02-11T01:41:18.800Z,1017.12
2017-02-11T01:41:28.791Z,1017.07
2017-02-11T01:41:38.788Z,1017.04
2017-02-11T01:41:48.778Z,1017.05
2017-02-11T01:41:58.769Z,1017.09
2017-02-11T01:42:08.345Z,1017.1
2017-02-11T01:42:18.759Z,1017.1
2017-02-11T01:42:28.751Z,1017.11
2017-02-11T01:42:38.746Z,1017.14
2017-02-11T01:42:48.741Z,1017.08
2017-02-11T01:42:58.310Z,1017.04
2017-02-11T01:43:08.722Z,1017.08
2017-02-11T01:43:18.714Z,1017.04
2017-02-11T01:43:28.707Z,1017.12
2017-02-11T01:43:38.703Z,1017.06
2017-02-11T01:43:48.694Z,1017.12
2017-02-11T01:43:58.686Z,1017.09
2017-02-11T01:44:08.260Z,1017.12
2017-02-11T01:44:18.675Z,1017.13
2017-02-11T01:44:28.668Z,1017.09
2017-02-11T01:44:38.660Z,1017.07
2017-02-11T01:44:48.651Z,1017.07
2017-02-11T01:44:58.646Z,1017.1
2017-02-11T01:45:08.929Z,1017.1
2017-02-11T01:45:18.632Z,1017.13
2017-02-11T01:45:28.624Z,1017.11
2017-02-11T01:45:38.901Z,1017.06
2017-02-11T01:45:48.618Z,1017.09
2017-02-11T01:45:58.606Z,1017.09
2017-02-11T01:46:08.178Z,1017.14
2017-02-11T01:46:18.588Z,1017.05
2017-02-11T01:46:28.874Z,1017.11
2017-02-11T01:46:38.573Z,1017.07
2017-02-11T01:46:48.569Z,1017.09
2017-02-11T01:46:58.143Z,1017.02
2017-02-11T01:47:08.551Z,1017.07
2017-02-11T01:47:18.548Z,1017.05
2017-02-11T01:47:28.538Z,1017.06
2017-02-11T01:47:38.532Z,1017
2017-02-11T01:47:48.523Z,1017.03
2017-02-11T01:47:58.801Z,1017.11
2017-02-11T01:48:08.510Z,1017.04
2017-02-11T01:48:18.504Z,1016.99
2017-02-11T01:48:28.500Z,1016.99
2017-02-11T01:48:38.489Z,1016.96
2017-02-11T01:48:48.753Z,1017
2017-02-11T01:48:58.476Z,1017
2017-02-11T01:49:08.052Z,1016.97
2017-02-11T01:49:18.462Z,1016.98
2017-02-11T01:49:28.454Z,1016.98
2017-02-11T01:49:38.451Z,1017.03
2017-02-11T01:49:48.444Z,1016.93
2017-02-11T01:49:58.433Z,1016.99
2017-02-11T01:50:08.008Z,1016.96
2017-02-11T01:50:18.423Z,1016.94
2017-02-11T01:50:28.414Z,1016.95
2017-02-11T01:50:38.408Z,1017
2017-02-11T01:50:48.398Z,1016.96
2017-02-11T01:50:58.434Z,1017.07
2017-02-11T01:51:08.389Z,1017.02
2017-02-11T01:51:18.378Z,1017.05
2017-02-11T01:51:28.374Z,1016.96
2017-02-11T01:51:38.369Z,1017.07
2017-02-11T01:51:48.360Z,1017.01
2017-02-11T01:51:57.935Z,1016.99
2017-02-11T01:52:08.346Z,1017.03
2017-02-11T01:52:18.340Z,1017
2017-02-11T01:52:28.329Z,1016.97
2017-02-11T01:52:38.320Z,1016.99
2017-02-11T01:52:48.315Z,1017.03
2017-02-11T01:52:58.596Z,1016.99
2017-02-11T01:53:07.880Z,1016.95
2017-02-11T01:53:17.880Z,1016.98
2017-02-11T01:53:28.288Z,1017.01
2017-02-11T01:53:38.283Z,1016.95
2017-02-11T01:53:48.273Z,1017.02
2017-02-11T01:53:57.849Z,1017
2017-02-11T01:54:08.264Z,1017.04
2017-02-11T01:54:18.253Z,1017
2017-02-11T01:54:28.246Z,1017
2017-02-11T01:54:38.239Z,1016.96
2017-02-11T01:54:48.233Z,1016.93
2017-02-11T01:54:58.226Z,1016.95
2017-02-11T01:55:08.217Z,1016.99
2017-02-11T01:55:18.211Z,1017
2017-02-11T01:55:28.204Z,1016.96
2017-02-11T01:55:38.196Z,1016.97
2017-02-11T01:55:48.192Z,1016.98
2017-02-11T01:55:58.183Z,1016.96
2017-02-11T01:56:08.173Z,1016.97
2017-02-11T01:56:18.169Z,1016.96
2017-02-11T01:56:28.163Z,1017.01
2017-02-11T01:56:38.155Z,1017
2017-02-11T01:56:48.149Z,1016.95
2017-02-11T01:56:57.723Z,1017.03
2017-02-11T01:57:08.131Z,1016.96
2017-02-11T01:57:18.128Z,1016.95
2017-02-11T01:57:27.703Z,1016.98
2017-02-11T01:57:38.113Z,1016.97
2017-02-11T01:57:48.107Z,1016.91
2017-02-11T01:57:57.680Z,1016.95
2017-02-11T01:58:08.092Z,1016.92
2017-02-11T01:58:18.084Z,1016.95
2017-02-11T01:58:28.077Z,1016.97
2017-02-11T01:58:38.071Z,1016.87
2017-02-11T01:58:48.064Z,1016.89
2017-02-11T01:58:58.056Z,1016.95
2017-02-11T01:59:07.629Z,1016.9
2017-02-11T01:59:18.043Z,1016.97
2017-02-11T01:59:27.890Z,1016.95
2017-02-11T01:59:38.029Z,1016.92
2017-02-11T01:59:48.024Z,1016.94
2017-02-11T01:59:57.598Z,1016.94
2017-02-11T02:00:08.292Z,1016.96
2017-02-11T02:00:18.001Z,1016.89
2017-02-11T02:00:27.995Z,1016.88
2017-02-11T02:00:37.983Z,1016.89
2017-02-11T02:00:47.979Z,1016.92
2017-02-11T02:00:57.977Z,1016.92
2017-02-11T02:01:07.964Z,1016.92
2017-02-11T02:01:17.957Z,1016.88